Terminal Aerodrome Forecast
Issued by NWS Rapid City, SD

Home | Current Version | Previous Version | Text Only | Print | Product List | Glossary Off
Versions: 1 2 3 4 5 6 7 8 9 10 11 12 13 14 15 16 17 18 19 20 21 22 23 24 25

000
FTUS43 KUNR 271120
TAFRAP
TAF
KRAP 271120Z 2712/2812 VRB03KT 3SM BR SCT250
      TEMPO 2712/2715 1/4SM FZFG VV001
     FM271500 16004KT P6SM SCT200
     FM280400 19008KT P6SM BKN100
     FM280800 08010KT 5SM -RA BR OVC015=

USA.gov is the U.S. government's official web portal to all federal, state and local government web resources and services.